Karaganda, Kazakhstan
Current Conditions -  °F | °C
As of 4:00 AM on Friday 28 Nov 2014 (Local Time) from UAKK Reporting Station
Moderate Snow Moderate Snow  
Wind Chill: -7°   Ceiling: 2200
Heat Index:   Visibility: 1.8mi
Dew Point:   Wind: 7mph
Humidity: 85%   Direction: 260°W
Pressure: 30.36"   Gusts: NA
Location:  49.88°N, 73.2°E
Report Text: UAKK 272200Z 26003MPS 3000 SN OVC022 M15/M17 Q1028 R23/490545NOSIG RMK QFE724/0965
Loading
Personal Weather Stations






























Interactive Weather Map New forecast layout! Learn more

10-Day Weather Forecast

Advertisements
Track Severe Weather on mobile